KSDY

Sidney-Richland Regional Airport

Sidney, Montana, USA
METAR KSDY 210456Z AUTO 31008KT 10SM CLR 16/04 A3027 RMK AO2 SLP255 T01560039
Observed Flight Rules
Aug-21 @ 04:56 UTC (9 hours ago) Visual Flight Rules
Wind Visibility Clouds
310° at 8 knots 10 miles
  • Clear skies
Temperatures Readings
Current 16°C / 61°F
Dewpoint 4°C / 39°F
Humidity 45%
Altimeter 30.27" Hg
Pressure 1025.5 hPa
Elevation 605
METAR KSDY 210456Z AUTO 31008KT 10SM CLR 16/04 A3027 RMK AO2 SLP255 T01560039
Observed Flight Rules
Aug-21 @ 04:56 UTC
(9 hours ago)
VFR
Wind Visibility
310° at 8 knots 10 miles
Clouds
  • Clear skies
Temperature Dewpoint
16°C / 61°F 4°C / 39°F
Humidity Altimeter Pressure
45% 30.27" Hg 1025.5 hPa